Uxbridge, United Kingdom
Current Conditions -  °F | °C
As of 2:50 PM on Wednesday 22 Oct 2014 (Local Time) from EGWU Reporting Station
Broken Clouds Broken Clouds  
Wind Chill: 55°   Ceiling: 14000
Heat Index: 55°   Visibility: 6mi
Dew Point: 43°   Wind: 15mph
Humidity: 63%   Direction: 280°W
Pressure: 30.27"   Gusts: NA
Location:  51.54°N, 0.48°W
Report Text: EGWU 221350Z 28013KT 9999 FEW030 SCT060 BKN140 13/06 Q1025 BLU NOSIG
Loading
Personal Weather Stations






























Interactive Weather Map New forecast layout! Learn more

10-Day Weather Forecast

Advertisements
Track Severe Weather on mobile